sensor_id;sensor_type;location;lat;lon;timestamp;P1;durP1;ratioP1;P2;durP2;ratioP2
24259;SDS011;12384;48.112;18.418;2022-07-21T00:00:21;11.73;;;10.80;;
24259;SDS011;12384;48.112;18.418;2022-07-21T00:02:53;10.67;;;10.07;;
24259;SDS011;12384;48.112;18.418;2022-07-21T00:05:23;10.50;;;9.90;;
24259;SDS011;12384;48.112;18.418;2022-07-21T00:07:52;10.80;;;10.20;;
24259;SDS011;12384;48.112;18.418;2022-07-21T00:10:22;11.37;;;10.67;;
24259;SDS011;12384;48.112;18.418;2022-07-21T00:12:53;10.83;;;10.23;;
24259;SDS011;12384;48.112;18.418;2022-07-21T00:15:23;11.30;;;10.60;;
24259;SDS011;12384;48.112;18.418;2022-07-21T00:17:54;11.63;;;10.83;;
24259;SDS011;12384;48.112;18.418;2022-07-21T00:20:23;10.80;;;10.10;;
24259;SDS011;12384;48.112;18.418;2022-07-21T00:22:54;10.47;;;9.87;;
24259;SDS011;12384;48.112;18.418;2022-07-21T00:25:23;10.70;;;10.10;;
24259;SDS011;12384;48.112;18.418;2022-07-21T00:27:59;11.00;;;10.30;;
24259;SDS011;12384;48.112;18.418;2022-07-21T00:30:28;11.33;;;10.70;;
24259;SDS011;12384;48.112;18.418;2022-07-21T00:32:58;10.93;;;10.30;;
24259;SDS011;12384;48.112;18.418;2022-07-21T00:35:26;10.40;;;9.80;;
24259;SDS011;12384;48.112;18.418;2022-07-21T00:37:55;10.97;;;10.27;;
24259;SDS011;12384;48.112;18.418;2022-07-21T00:40:24;10.93;;;10.23;;
24259;SDS011;12384;48.112;18.418;2022-07-21T00:42:53;11.13;;;10.50;;
24259;SDS011;12384;48.112;18.418;2022-07-21T00:45:22;11.27;;;10.67;;
24259;SDS011;12384;48.112;18.418;2022-07-21T00:47:50;11.20;;;10.50;;
24259;SDS011;12384;48.112;18.418;2022-07-21T00:50:21;10.83;;;10.13;;
24259;SDS011;12384;48.112;18.418;2022-07-21T00:52:50;11.27;;;10.47;;
24259;SDS011;12384;48.112;18.418;2022-07-21T00:55:19;10.97;;;10.37;;
24259;SDS011;12384;48.112;18.418;2022-07-21T00:57:49;11.47;;;10.77;;
24259;SDS011;12384;48.112;18.418;2022-07-21T01:00:20;11.70;;;10.80;;
24259;SDS011;12384;48.112;18.418;2022-07-21T01:02:50;11.30;;;10.60;;
24259;SDS011;12384;48.112;18.418;2022-07-21T01:05:19;11.37;;;10.67;;
24259;SDS011;12384;48.112;18.418;2022-07-21T01:07:50;11.50;;;10.70;;
24259;SDS011;12384;48.112;18.418;2022-07-21T01:10:20;12.00;;;10.80;;
24259;SDS011;12384;48.112;18.418;2022-07-21T01:12:50;11.33;;;10.53;;
24259;SDS011;12384;48.112;18.418;2022-07-21T01:15:19;11.50;;;10.70;;
24259;SDS011;12384;48.112;18.418;2022-07-21T01:17:48;11.40;;;10.70;;
24259;SDS011;12384;48.112;18.418;2022-07-21T01:20:18;11.23;;;10.53;;
24259;SDS011;12384;48.112;18.418;2022-07-21T01:22:52;11.27;;;10.67;;
24259;SDS011;12384;48.112;18.418;2022-07-21T01:25:23;11.03;;;10.33;;
24259;SDS011;12384;48.112;18.418;2022-07-21T01:27:52;11.10;;;10.40;;
24259;SDS011;12384;48.112;18.418;2022-07-21T01:30:21;10.93;;;10.33;;
24259;SDS011;12384;48.112;18.418;2022-07-21T01:32:50;10.47;;;9.87;;
24259;SDS011;12384;48.112;18.418;2022-07-21T01:35:19;10.80;;;10.20;;
24259;SDS011;12384;48.112;18.418;2022-07-21T01:37:48;10.90;;;10.20;;
24259;SDS011;12384;48.112;18.418;2022-07-21T01:40:18;11.07;;;10.17;;
24259;SDS011;12384;48.112;18.418;2022-07-21T01:43:05;11.30;;;10.60;;
24259;SDS011;12384;48.112;18.418;2022-07-21T01:45:38;11.37;;;10.57;;
24259;SDS011;12384;48.112;18.418;2022-07-21T01:48:08;10.57;;;9.97;;
24259;SDS011;12384;48.112;18.418;2022-07-21T01:50:37;11.23;;;10.27;;
24259;SDS011;12384;48.112;18.418;2022-07-21T01:53:06;11.43;;;10.70;;
24259;SDS011;12384;48.112;18.418;2022-07-21T01:55:36;10.40;;;9.80;;
24259;SDS011;12384;48.112;18.418;2022-07-21T01:58:05;10.87;;;10.07;;
24259;SDS011;12384;48.112;18.418;2022-07-21T02:00:34;10.87;;;10.07;;
24259;SDS011;12384;48.112;18.418;2022-07-21T02:03:02;10.87;;;10.17;;
24259;SDS011;12384;48.112;18.418;2022-07-21T02:05:31;10.40;;;9.80;;
24259;SDS011;12384;48.112;18.418;2022-07-21T02:08:00;10.97;;;10.17;;
24259;SDS011;12384;48.112;18.418;2022-07-21T02:10:28;11.43;;;10.67;;
24259;SDS011;12384;48.112;18.418;2022-07-21T02:12:58;10.90;;;10.20;;
24259;SDS011;12384;48.112;18.418;2022-07-21T02:15:27;11.10;;;10.40;;
24259;SDS011;12384;48.112;18.418;2022-07-21T02:17:55;10.67;;;9.97;;
24259;SDS011;12384;48.112;18.418;2022-07-21T02:20:24;11.83;;;11.03;;
24259;SDS011;12384;48.112;18.418;2022-07-21T02:22:53;12.03;;;11.23;;
24259;SDS011;12384;48.112;18.418;2022-07-21T02:25:22;11.90;;;11.10;;
24259;SDS011;12384;48.112;18.418;2022-07-21T02:27:50;11.70;;;10.90;;
24259;SDS011;12384;48.112;18.418;2022-07-21T02:30:21;11.57;;;10.87;;
24259;SDS011;12384;48.112;18.418;2022-07-21T02:32:50;11.70;;;11.00;;
24259;SDS011;12384;48.112;18.418;2022-07-21T02:35:20;12.17;;;11.20;;
24259;SDS011;12384;48.112;18.418;2022-07-21T02:37:48;10.70;;;10.10;;
24259;SDS011;12384;48.112;18.418;2022-07-21T02:40:17;11.07;;;10.37;;
24259;SDS011;12384;48.112;18.418;2022-07-21T02:42:45;12.20;;;11.07;;
24259;SDS011;12384;48.112;18.418;2022-07-21T02:45:14;10.70;;;10.10;;
24259;SDS011;12384;48.112;18.418;2022-07-21T02:47:53;11.10;;;10.40;;
24259;SDS011;12384;48.112;18.418;2022-07-21T02:50:24;11.50;;;10.80;;
24259;SDS011;12384;48.112;18.418;2022-07-21T02:52:54;12.20;;;11.50;;
24259;SDS011;12384;48.112;18.418;2022-07-21T02:55:24;12.97;;;12.07;;
24259;SDS011;12384;48.112;18.418;2022-07-21T02:58:09;11.87;;;11.00;;
24259;SDS011;12384;48.112;18.418;2022-07-21T03:00:39;12.27;;;11.47;;
24259;SDS011;12384;48.112;18.418;2022-07-21T03:03:10;12.00;;;11.30;;
24259;SDS011;12384;48.112;18.418;2022-07-21T03:05:40;11.87;;;11.17;;
24259;SDS011;12384;48.112;18.418;2022-07-21T03:08:09;12.37;;;11.57;;
24259;SDS011;12384;48.112;18.418;2022-07-21T03:10:38;12.77;;;11.97;;
24259;SDS011;12384;48.112;18.418;2022-07-21T03:13:08;12.73;;;11.93;;
24259;SDS011;12384;48.112;18.418;2022-07-21T03:15:39;12.13;;;11.33;;
24259;SDS011;12384;48.112;18.418;2022-07-21T03:18:08;12.57;;;11.70;;
24259;SDS011;12384;48.112;18.418;2022-07-21T03:20:38;12.33;;;11.47;;
24259;SDS011;12384;48.112;18.418;2022-07-21T03:23:08;12.20;;;11.50;;
24259;SDS011;12384;48.112;18.418;2022-07-21T03:25:37;11.70;;;10.90;;
24259;SDS011;12384;48.112;18.418;2022-07-21T03:28:06;11.60;;;10.80;;
24259;SDS011;12384;48.112;18.418;2022-07-21T03:30:35;11.73;;;10.83;;
24259;SDS011;12384;48.112;18.418;2022-07-21T03:33:04;12.03;;;11.13;;
24259;SDS011;12384;48.112;18.418;2022-07-21T03:35:32;11.87;;;11.10;;
24259;SDS011;12384;48.112;18.418;2022-07-21T03:38:04;11.87;;;11.17;;
24259;SDS011;12384;48.112;18.418;2022-07-21T03:40:34;11.90;;;11.10;;
24259;SDS011;12384;48.112;18.418;2022-07-21T03:43:05;11.87;;;10.97;;
24259;SDS011;12384;48.112;18.418;2022-07-21T03:45:35;11.07;;;10.30;;
24259;SDS011;12384;48.112;18.418;2022-07-21T03:48:04;11.27;;;10.40;;
24259;SDS011;12384;48.112;18.418;2022-07-21T03:50:34;11.37;;;10.40;;
24259;SDS011;12384;48.112;18.418;2022-07-21T03:53:07;11.37;;;10.50;;
24259;SDS011;12384;48.112;18.418;2022-07-21T03:55:36;11.57;;;10.33;;
24259;SDS011;12384;48.112;18.418;2022-07-21T03:58:05;10.97;;;10.23;;
24259;SDS011;12384;48.112;18.418;2022-07-21T04:00:35;11.67;;;10.80;;
24259;SDS011;12384;48.112;18.418;2022-07-21T04:03:05;11.50;;;10.57;;
24259;SDS011;12384;48.112;18.418;2022-07-21T04:05:35;11.53;;;10.80;;
24259;SDS011;12384;48.112;18.418;2022-07-21T04:08:06;11.40;;;10.60;;
24259;SDS011;12384;48.112;18.418;2022-07-21T04:10:36;12.47;;;11.30;;
24259;SDS011;12384;48.112;18.418;2022-07-21T04:13:06;11.67;;;10.80;;
24259;SDS011;12384;48.112;18.418;2022-07-21T04:15:37;12.47;;;11.30;;
24259;SDS011;12384;48.112;18.418;2022-07-21T04:18:06;12.47;;;11.47;;
24259;SDS011;12384;48.112;18.418;2022-07-21T04:20:35;11.63;;;10.80;;
24259;SDS011;12384;48.112;18.418;2022-07-21T04:23:04;11.80;;;11.00;;
24259;SDS011;12384;48.112;18.418;2022-07-21T04:25:34;11.57;;;10.63;;
24259;SDS011;12384;48.112;18.418;2022-07-21T04:28:05;11.27;;;10.57;;
24259;SDS011;12384;48.112;18.418;2022-07-21T04:30:34;11.10;;;10.37;;
24259;SDS011;12384;48.112;18.418;2022-07-21T04:33:03;11.43;;;10.73;;
24259;SDS011;12384;48.112;18.418;2022-07-21T04:35:33;12.10;;;11.10;;
24259;SDS011;12384;48.112;18.418;2022-07-21T04:38:02;11.97;;;10.97;;
24259;SDS011;12384;48.112;18.418;2022-07-21T04:40:32;12.20;;;11.03;;
24259;SDS011;12384;48.112;18.418;2022-07-21T04:43:00;11.30;;;10.40;;
24259;SDS011;12384;48.112;18.418;2022-07-21T04:45:30;14.83;;;11.00;;
24259;SDS011;12384;48.112;18.418;2022-07-21T04:47:59;10.73;;;10.03;;
24259;SDS011;12384;48.112;18.418;2022-07-21T04:50:28;11.43;;;10.53;;
24259;SDS011;12384;48.112;18.418;2022-07-21T04:52:57;10.40;;;9.50;;
24259;SDS011;12384;48.112;18.418;2022-07-21T04:55:26;10.40;;;9.57;;
24259;SDS011;12384;48.112;18.418;2022-07-21T04:57:56;10.37;;;9.33;;
24259;SDS011;12384;48.112;18.418;2022-07-21T05:00:25;12.20;;;11.30;;
24259;SDS011;12384;48.112;18.418;2022-07-21T05:02:55;10.97;;;10.10;;
24259;SDS011;12384;48.112;18.418;2022-07-21T05:05:25;11.63;;;9.90;;
24259;SDS011;12384;48.112;18.418;2022-07-21T05:07:54;9.50;;;8.73;;
24259;SDS011;12384;48.112;18.418;2022-07-21T05:10:23;8.93;;;8.20;;
24259;SDS011;12384;48.112;18.418;2022-07-21T05:12:52;8.30;;;6.53;;
24259;SDS011;12384;48.112;18.418;2022-07-21T05:15:22;15.87;;;6.67;;
24259;SDS011;12384;48.112;18.418;2022-07-21T05:17:50;31.67;;;7.75;;
24259;SDS011;12384;48.112;18.418;2022-07-21T05:20:19;17.90;;;6.72;;
24259;SDS011;12384;48.112;18.418;2022-07-21T05:22:48;42.85;;;12.00;;
24259;SDS011;12384;48.112;18.418;2022-07-21T05:25:16;18.05;;;7.28;;
24259;SDS011;12384;48.112;18.418;2022-07-21T05:27:45;17.10;;;5.78;;
24259;SDS011;12384;48.112;18.418;2022-07-21T05:30:13;12.27;;;5.45;;
24259;SDS011;12384;48.112;18.418;2022-07-21T05:32:43;13.57;;;5.72;;
24259;SDS011;12384;48.112;18.418;2022-07-21T05:35:14;6.93;;;4.35;;
24259;SDS011;12384;48.112;18.418;2022-07-21T05:37:43;8.48;;;4.90;;
24259;SDS011;12384;48.112;18.418;2022-07-21T05:40:13;6.55;;;4.22;;
24259;SDS011;12384;48.112;18.418;2022-07-21T05:42:42;9.80;;;4.70;;
24259;SDS011;12384;48.112;18.418;2022-07-21T05:45:11;10.23;;;4.60;;
24259;SDS011;12384;48.112;18.418;2022-07-21T05:47:40;7.40;;;4.57;;
24259;SDS011;12384;48.112;18.418;2022-07-21T05:50:11;5.88;;;4.03;;
24259;SDS011;12384;48.112;18.418;2022-07-21T05:52:41;13.00;;;5.00;;
24259;SDS011;12384;48.112;18.418;2022-07-21T05:55:10;14.88;;;5.28;;
24259;SDS011;12384;48.112;18.418;2022-07-21T05:57:39;21.33;;;5.40;;
24259;SDS011;12384;48.112;18.418;2022-07-21T06:00:12;12.10;;;4.60;;
24259;SDS011;12384;48.112;18.418;2022-07-21T06:02:42;10.35;;;4.60;;
24259;SDS011;12384;48.112;18.418;2022-07-21T06:05:13;11.20;;;5.03;;
24259;SDS011;12384;48.112;18.418;2022-07-21T06:07:42;5.00;;;4.28;;
24259;SDS011;12384;48.112;18.418;2022-07-21T06:10:11;5.43;;;4.85;;
24259;SDS011;12384;48.112;18.418;2022-07-21T06:12:42;14.48;;;5.53;;
24259;SDS011;12384;48.112;18.418;2022-07-21T06:15:12;14.95;;;5.90;;
24259;SDS011;12384;48.112;18.418;2022-07-21T06:17:41;15.30;;;5.22;;
24259;SDS011;12384;48.112;18.418;2022-07-21T06:20:13;21.00;;;6.00;;
24259;SDS011;12384;48.112;18.418;2022-07-21T06:22:42;14.48;;;5.90;;
24259;SDS011;12384;48.112;18.418;2022-07-21T06:25:11;13.23;;;6.10;;
24259;SDS011;12384;48.112;18.418;2022-07-21T06:27:39;9.55;;;5.90;;
24259;SDS011;12384;48.112;18.418;2022-07-21T06:30:08;7.10;;;5.30;;
24259;SDS011;12384;48.112;18.418;2022-07-21T06:32:38;13.02;;;5.22;;
24259;SDS011;12384;48.112;18.418;2022-07-21T06:35:07;18.63;;;6.93;;
24259;SDS011;12384;48.112;18.418;2022-07-21T06:37:38;8.43;;;6.35;;
24259;SDS011;12384;48.112;18.418;2022-07-21T06:40:11;32.45;;;7.57;;
24259;SDS011;12384;48.112;18.418;2022-07-21T06:42:40;16.05;;;5.00;;
24259;SDS011;12384;48.112;18.418;2022-07-21T06:45:29;15.73;;;5.40;;
24259;SDS011;12384;48.112;18.418;2022-07-21T06:47:59;12.68;;;6.70;;
24259;SDS011;12384;48.112;18.418;2022-07-21T06:50:29;18.75;;;6.05;;
24259;SDS011;12384;48.112;18.418;2022-07-21T06:52:59;17.02;;;6.78;;
24259;SDS011;12384;48.112;18.418;2022-07-21T06:55:28;12.00;;;7.18;;
24259;SDS011;12384;48.112;18.418;2022-07-21T06:57:57;16.15;;;7.95;;
24259;SDS011;12384;48.112;18.418;2022-07-21T07:00:25;16.27;;;7.80;;
24259;SDS011;12384;48.112;18.418;2022-07-21T07:02:54;9.35;;;7.30;;
24259;SDS011;12384;48.112;18.418;2022-07-21T07:05:23;15.30;;;7.55;;
24259;SDS011;12384;48.112;18.418;2022-07-21T07:07:54;19.67;;;7.50;;
24259;SDS011;12384;48.112;18.418;2022-07-21T07:10:24;14.50;;;8.68;;
24259;SDS011;12384;48.112;18.418;2022-07-21T07:12:53;12.20;;;8.23;;
24259;SDS011;12384;48.112;18.418;2022-07-21T07:15:42;11.60;;;7.95;;
24259;SDS011;12384;48.112;18.418;2022-07-21T07:18:11;13.00;;;8.75;;
24259;SDS011;12384;48.112;18.418;2022-07-21T07:20:39;10.85;;;9.45;;
24259;SDS011;12384;48.112;18.418;2022-07-21T07:23:08;13.25;;;8.07;;
24259;SDS011;12384;48.112;18.418;2022-07-21T07:25:38;14.27;;;10.95;;
24259;SDS011;12384;48.112;18.418;2022-07-21T07:28:06;14.05;;;8.98;;
24259;SDS011;12384;48.112;18.418;2022-07-21T07:30:35;21.58;;;9.75;;
24259;SDS011;12384;48.112;18.418;2022-07-21T07:33:04;18.70;;;9.13;;
24259;SDS011;12384;48.112;18.418;2022-07-21T07:35:33;10.82;;;9.77;;
24259;SDS011;12384;48.112;18.418;2022-07-21T07:38:01;11.02;;;9.73;;
24259;SDS011;12384;48.112;18.418;2022-07-21T07:40:30;11.98;;;10.32;;
24259;SDS011;12384;48.112;18.418;2022-07-21T07:43:00;14.00;;;10.23;;
24259;SDS011;12384;48.112;18.418;2022-07-21T07:45:33;12.55;;;10.27;;
24259;SDS011;12384;48.112;18.418;2022-07-21T07:48:03;15.73;;;11.05;;
24259;SDS011;12384;48.112;18.418;2022-07-21T07:50:33;11.40;;;10.20;;
24259;SDS011;12384;48.112;18.418;2022-07-21T07:53:02;10.60;;;9.55;;
24259;SDS011;12384;48.112;18.418;2022-07-21T07:55:31;12.10;;;10.02;;
24259;SDS011;12384;48.112;18.418;2022-07-21T07:58:01;11.38;;;10.30;;
24259;SDS011;12384;48.112;18.418;2022-07-21T08:00:29;10.77;;;9.80;;
24259;SDS011;12384;48.112;18.418;2022-07-21T08:03:18;11.02;;;9.93;;
24259;SDS011;12384;48.112;18.418;2022-07-21T08:05:48;9.98;;;8.65;;
24259;SDS011;12384;48.112;18.418;2022-07-21T08:08:17;9.70;;;8.77;;
24259;SDS011;12384;48.112;18.418;2022-07-21T08:10:46;12.18;;;8.13;;
24259;SDS011;12384;48.112;18.418;2022-07-21T08:13:16;13.45;;;7.80;;
24259;SDS011;12384;48.112;18.418;2022-07-21T08:15:46;8.80;;;7.95;;
24259;SDS011;12384;48.112;18.418;2022-07-21T08:18:16;9.07;;;8.48;;
24259;SDS011;12384;48.112;18.418;2022-07-21T08:20:45;9.40;;;7.05;;
24259;SDS011;12384;48.112;18.418;2022-07-21T08:23:15;9.02;;;8.00;;
24259;SDS011;12384;48.112;18.418;2022-07-21T08:25:44;8.80;;;7.95;;
24259;SDS011;12384;48.112;18.418;2022-07-21T08:28:12;11.23;;;7.97;;
24259;SDS011;12384;48.112;18.418;2022-07-21T08:30:43;9.75;;;9.05;;
24259;SDS011;12384;48.112;18.418;2022-07-21T08:33:11;10.45;;;9.75;;
24259;SDS011;12384;48.112;18.418;2022-07-21T08:35:40;12.07;;;10.90;;
24259;SDS011;12384;48.112;18.418;2022-07-21T08:38:09;16.15;;;12.20;;
24259;SDS011;12384;48.112;18.418;2022-07-21T08:40:40;12.60;;;11.60;;
24259;SDS011;12384;48.112;18.418;2022-07-21T08:43:10;12.50;;;11.40;;
24259;SDS011;12384;48.112;18.418;2022-07-21T08:45:42;14.25;;;12.27;;
24259;SDS011;12384;48.112;18.418;2022-07-21T08:48:11;12.85;;;11.30;;
24259;SDS011;12384;48.112;18.418;2022-07-21T08:50:44;11.80;;;10.98;;
24259;SDS011;12384;48.112;18.418;2022-07-21T08:53:13;16.08;;;12.30;;
24259;SDS011;12384;48.112;18.418;2022-07-21T08:55:42;12.52;;;10.43;;
24259;SDS011;12384;48.112;18.418;2022-07-21T08:58:11;11.63;;;10.45;;
24259;SDS011;12384;48.112;18.418;2022-07-21T09:00:41;12.15;;;11.10;;
24259;SDS011;12384;48.112;18.418;2022-07-21T09:03:13;12.18;;;11.38;;
24259;SDS011;12384;48.112;18.418;2022-07-21T09:08:36;12.90;;;11.63;;
24259;SDS011;12384;48.112;18.418;2022-07-21T09:11:07;11.57;;;10.32;;
24259;SDS011;12384;48.112;18.418;2022-07-21T09:13:37;11.32;;;10.52;;
24259;SDS011;12384;48.112;18.418;2022-07-21T09:16:07;11.80;;;10.93;;
24259;SDS011;12384;48.112;18.418;2022-07-21T09:21:20;11.35;;;10.20;;
24259;SDS011;12384;48.112;18.418;2022-07-21T09:23:49;11.52;;;10.55;;
24259;SDS011;12384;48.112;18.418;2022-07-21T09:26:18;10.25;;;9.45;;
24259;SDS011;12384;48.112;18.418;2022-07-21T09:28:47;12.82;;;10.20;;
24259;SDS011;12384;48.112;18.418;2022-07-21T09:31:17;11.32;;;10.23;;
24259;SDS011;12384;48.112;18.418;2022-07-21T09:33:46;13.05;;;11.90;;
24259;SDS011;12384;48.112;18.418;2022-07-21T09:36:16;13.93;;;12.48;;
24259;SDS011;12384;48.112;18.418;2022-07-21T09:38:49;11.30;;;10.13;;
24259;SDS011;12384;48.112;18.418;2022-07-21T09:41:19;10.40;;;8.40;;
24259;SDS011;12384;48.112;18.418;2022-07-21T09:43:50;8.95;;;8.10;;
24259;SDS011;12384;48.112;18.418;2022-07-21T09:46:22;9.90;;;8.95;;
24259;SDS011;12384;48.112;18.418;2022-07-21T09:48:52;8.48;;;7.90;;
24259;SDS011;12384;48.112;18.418;2022-07-21T09:51:43;9.00;;;7.40;;
24259;SDS011;12384;48.112;18.418;2022-07-21T09:54:12;8.45;;;7.82;;
24259;SDS011;12384;48.112;18.418;2022-07-21T09:56:42;8.63;;;8.13;;
24259;SDS011;12384;48.112;18.418;2022-07-21T09:59:14;10.60;;;9.80;;
24259;SDS011;12384;48.112;18.418;2022-07-21T10:01:44;9.93;;;9.13;;
24259;SDS011;12384;48.112;18.418;2022-07-21T10:04:14;10.10;;;9.45;;
24259;SDS011;12384;48.112;18.418;2022-07-21T10:07:07;11.43;;;10.32;;
24259;SDS011;12384;48.112;18.418;2022-07-21T10:09:37;10.60;;;9.73;;
24259;SDS011;12384;48.112;18.418;2022-07-21T10:12:06;10.07;;;9.43;;
24259;SDS011;12384;48.112;18.418;2022-07-21T10:14:35;9.50;;;8.43;;
24259;SDS011;12384;48.112;18.418;2022-07-21T10:17:06;10.10;;;9.20;;
24259;SDS011;12384;48.112;18.418;2022-07-21T10:19:37;8.95;;;8.15;;
24259;SDS011;12384;48.112;18.418;2022-07-21T10:22:19;10.55;;;9.70;;
24259;SDS011;12384;48.112;18.418;2022-07-21T10:24:53;9.88;;;9.07;;
24259;SDS011;12384;48.112;18.418;2022-07-21T10:27:22;10.00;;;9.40;;
24259;SDS011;12384;48.112;18.418;2022-07-21T10:30:11;12.15;;;11.35;;
24259;SDS011;12384;48.112;18.418;2022-07-21T10:32:49;11.80;;;10.70;;
24259;SDS011;12384;48.112;18.418;2022-07-21T10:35:25;10.55;;;9.27;;
24259;SDS011;12384;48.112;18.418;2022-07-21T10:37:56;14.07;;;10.60;;
24259;SDS011;12384;48.112;18.418;2022-07-21T10:40:37;14.68;;;12.07;;
24259;SDS011;12384;48.112;18.418;2022-07-21T10:49:06;12.70;;;11.60;;
24259;SDS011;12384;48.112;18.418;2022-07-21T10:51:36;12.60;;;11.48;;
24259;SDS011;12384;48.112;18.418;2022-07-21T10:54:22;12.30;;;11.45;;
24259;SDS011;12384;48.112;18.418;2022-07-21T11:02:46;11.85;;;10.80;;
24259;SDS011;12384;48.112;18.418;2022-07-21T11:05:17;10.40;;;9.48;;
24259;SDS011;12384;48.112;18.418;2022-07-21T11:10:38;10.15;;;9.48;;
24259;SDS011;12384;48.112;18.418;2022-07-21T11:13:07;11.05;;;10.18;;
24259;SDS011;12384;48.112;18.418;2022-07-21T11:15:45;12.45;;;10.43;;
24259;SDS011;12384;48.112;18.418;2022-07-21T11:18:16;11.50;;;10.50;;
24259;SDS011;12384;48.112;18.418;2022-07-21T11:23:42;10.68;;;9.68;;
24259;SDS011;12384;48.112;18.418;2022-07-21T11:26:12;11.10;;;10.20;;
24259;SDS011;12384;48.112;18.418;2022-07-21T11:28:43;10.90;;;9.90;;
24259;SDS011;12384;48.112;18.418;2022-07-21T11:31:14;10.35;;;9.25;;
24259;SDS011;12384;48.112;18.418;2022-07-21T11:33:45;8.95;;;8.25;;
24259;SDS011;12384;48.112;18.418;2022-07-21T11:36:25;9.73;;;9.00;;
24259;SDS011;12384;48.112;18.418;2022-07-21T11:39:04;9.60;;;8.75;;
24259;SDS011;12384;48.112;18.418;2022-07-21T11:41:34;9.98;;;9.18;;
24259;SDS011;12384;48.112;18.418;2022-07-21T11:44:04;10.65;;;8.73;;
24259;SDS011;12384;48.112;18.418;2022-07-21T11:46:46;10.25;;;9.35;;
24259;SDS011;12384;48.112;18.418;2022-07-21T11:49:16;11.73;;;10.70;;
24259;SDS011;12384;48.112;18.418;2022-07-21T11:51:46;11.80;;;11.10;;
24259;SDS011;12384;48.112;18.418;2022-07-21T11:54:20;11.88;;;10.95;;
24259;SDS011;12384;48.112;18.418;2022-07-21T11:56:51;12.70;;;11.73;;
24259;SDS011;12384;48.112;18.418;2022-07-21T11:59:21;13.30;;;12.25;;
24259;SDS011;12384;48.112;18.418;2022-07-21T12:01:51;12.20;;;11.40;;
24259;SDS011;12384;48.112;18.418;2022-07-21T12:04:33;13.95;;;12.63;;
24259;SDS011;12384;48.112;18.418;2022-07-21T12:07:06;12.25;;;11.25;;
24259;SDS011;12384;48.112;18.418;2022-07-21T12:09:41;12.75;;;11.57;;
24259;SDS011;12384;48.112;18.418;2022-07-21T12:18:28;14.63;;;13.38;;
24259;SDS011;12384;48.112;18.418;2022-07-21T12:21:00;14.63;;;13.63;;
24259;SDS011;12384;48.112;18.418;2022-07-21T12:23:30;14.40;;;13.23;;
24259;SDS011;12384;48.112;18.418;2022-07-21T12:26:01;13.98;;;12.50;;
24259;SDS011;12384;48.112;18.418;2022-07-21T12:28:43;13.60;;;12.65;;
24259;SDS011;12384;48.112;18.418;2022-07-21T12:31:14;13.27;;;12.32;;
24259;SDS011;12384;48.112;18.418;2022-07-21T12:33:48;14.07;;;12.88;;
24259;SDS011;12384;48.112;18.418;2022-07-21T12:36:37;14.07;;;12.68;;
24259;SDS011;12384;48.112;18.418;2022-07-21T12:39:13;15.50;;;14.10;;
24259;SDS011;12384;48.112;18.418;2022-07-21T12:42:01;14.85;;;13.88;;
24259;SDS011;12384;48.112;18.418;2022-07-21T12:44:31;14.90;;;13.50;;
24259;SDS011;12384;48.112;18.418;2022-07-21T12:47:13;15.25;;;14.07;;
24259;SDS011;12384;48.112;18.418;2022-07-21T12:52:41;17.10;;;15.65;;
24259;SDS011;12384;48.112;18.418;2022-07-21T12:55:09;16.88;;;15.30;;
24259;SDS011;12384;48.112;18.418;2022-07-21T12:57:42;17.45;;;16.13;;
24259;SDS011;12384;48.112;18.418;2022-07-21T13:00:11;17.98;;;16.60;;
24259;SDS011;12384;48.112;18.418;2022-07-21T13:02:46;17.27;;;15.63;;
24259;SDS011;12384;48.112;18.418;2022-07-21T13:05:17;15.50;;;14.30;;
24259;SDS011;12384;48.112;18.418;2022-07-21T13:07:47;16.60;;;14.73;;
24259;SDS011;12384;48.112;18.418;2022-07-21T13:10:15;16.77;;;15.27;;
24259;SDS011;12384;48.112;18.418;2022-07-21T13:12:46;18.25;;;15.30;;
24259;SDS011;12384;48.112;18.418;2022-07-21T13:15:15;16.90;;;15.52;;
24259;SDS011;12384;48.112;18.418;2022-07-21T13:17:44;16.80;;;15.30;;
24259;SDS011;12384;48.112;18.418;2022-07-21T13:20:12;17.50;;;15.23;;
24259;SDS011;12384;48.112;18.418;2022-07-21T13:22:41;17.27;;;15.70;;
24259;SDS011;12384;48.112;18.418;2022-07-21T13:25:10;20.98;;;15.63;;
24259;SDS011;12384;48.112;18.418;2022-07-21T13:27:39;16.85;;;15.35;;
24259;SDS011;12384;48.112;18.418;2022-07-21T13:30:15;17.60;;;15.23;;
24259;SDS011;12384;48.112;18.418;2022-07-21T13:32:44;17.52;;;15.77;;
24259;SDS011;12384;48.112;18.418;2022-07-21T13:35:13;17.70;;;15.80;;
24259;SDS011;12384;48.112;18.418;2022-07-21T13:37:58;17.65;;;15.93;;
24259;SDS011;12384;48.112;18.418;2022-07-21T13:40:27;16.85;;;15.30;;
24259;SDS011;12384;48.112;18.418;2022-07-21T13:43:16;18.23;;;16.25;;
24259;SDS011;12384;48.112;18.418;2022-07-21T13:46:03;18.25;;;15.40;;
24259;SDS011;12384;48.112;18.418;2022-07-21T13:48:32;16.90;;;15.50;;
24259;SDS011;12384;48.112;18.418;2022-07-21T13:51:09;17.80;;;16.27;;
24259;SDS011;12384;48.112;18.418;2022-07-21T13:53:39;17.52;;;16.10;;
24259;SDS011;12384;48.112;18.418;2022-07-21T13:56:08;16.80;;;15.45;;
24259;SDS011;12384;48.112;18.418;2022-07-21T13:58:38;17.45;;;16.05;;
24259;SDS011;12384;48.112;18.418;2022-07-21T14:01:10;16.63;;;15.25;;
24259;SDS011;12384;48.112;18.418;2022-07-21T14:03:39;17.17;;;15.60;;
24259;SDS011;12384;48.112;18.418;2022-07-21T14:06:09;16.10;;;14.80;;
24259;SDS011;12384;48.112;18.418;2022-07-21T14:08:37;15.25;;;14.15;;
24259;SDS011;12384;48.112;18.418;2022-07-21T14:11:07;15.77;;;14.35;;
24259;SDS011;12384;48.112;18.418;2022-07-21T14:13:35;15.32;;;14.18;;
24259;SDS011;12384;48.112;18.418;2022-07-21T14:16:04;14.90;;;13.55;;
24259;SDS011;12384;48.112;18.418;2022-07-21T14:18:35;15.05;;;13.52;;
24259;SDS011;12384;48.112;18.418;2022-07-21T14:21:04;14.77;;;13.57;;
24259;SDS011;12384;48.112;18.418;2022-07-21T14:23:33;14.60;;;13.30;;
24259;SDS011;12384;48.112;18.418;2022-07-21T14:26:01;15.90;;;14.45;;
24259;SDS011;12384;48.112;18.418;2022-07-21T14:28:30;16.02;;;14.32;;
24259;SDS011;12384;48.112;18.418;2022-07-21T14:30:59;15.68;;;14.10;;
24259;SDS011;12384;48.112;18.418;2022-07-21T14:33:28;15.38;;;13.38;;
24259;SDS011;12384;48.112;18.418;2022-07-21T14:35:58;15.27;;;13.95;;
24259;SDS011;12384;48.112;18.418;2022-07-21T14:38:27;15.50;;;11.95;;
24259;SDS011;12384;48.112;18.418;2022-07-21T14:40:55;14.13;;;13.07;;
24259;SDS011;12384;48.112;18.418;2022-07-21T14:43:24;16.65;;;13.05;;
24259;SDS011;12384;48.112;18.418;2022-07-21T14:45:53;14.02;;;12.75;;
24259;SDS011;12384;48.112;18.418;2022-07-21T14:48:21;16.45;;;13.73;;
24259;SDS011;12384;48.112;18.418;2022-07-21T14:50:50;14.38;;;13.13;;
24259;SDS011;12384;48.112;18.418;2022-07-21T14:53:20;15.00;;;13.70;;
24259;SDS011;12384;48.112;18.418;2022-07-21T14:55:49;13.30;;;12.20;;
24259;SDS011;12384;48.112;18.418;2022-07-21T14:58:17;15.20;;;13.50;;
24259;SDS011;12384;48.112;18.418;2022-07-21T15:00:46;14.98;;;13.88;;
24259;SDS011;12384;48.112;18.418;2022-07-21T15:03:15;15.73;;;14.40;;
24259;SDS011;12384;48.112;18.418;2022-07-21T15:05:46;17.35;;;14.25;;